createdAt,value
2018-08-17T00:00:05.574Z,10.80
2018-08-17T00:01:05.531Z,9.30
2018-08-17T00:02:05.487Z,9.10
2018-08-17T00:03:05.463Z,9.50
2018-08-17T00:04:05.401Z,9.50
2018-08-17T00:05:05.350Z,9.40
2018-08-17T00:06:05.307Z,9.30
2018-08-17T00:07:05.255Z,9.20
2018-08-17T00:08:05.243Z,9.80
2018-08-17T00:09:05.319Z,9.00
2018-08-17T00:10:05.162Z,10.00
2018-08-17T00:11:05.070Z,9.00
2018-08-17T00:12:05.021Z,8.70
2018-08-17T00:13:05.013Z,9.30
2018-08-17T00:14:04.960Z,9.10
2018-08-17T00:15:04.882Z,9.90
2018-08-17T00:16:04.836Z,9.30
2018-08-17T00:17:04.797Z,9.50
2018-08-17T00:18:04.779Z,7.60
2018-08-17T00:19:04.706Z,8.90
2018-08-17T00:20:04.669Z,8.50
2018-08-17T00:21:04.700Z,8.90
2018-08-17T00:22:04.580Z,8.80
2018-08-17T00:23:04.547Z,8.00
2018-08-17T00:24:04.467Z,8.50
2018-08-17T00:25:04.427Z,8.10
2018-08-17T00:26:04.380Z,8.30
2018-08-17T00:27:04.326Z,8.40
2018-08-17T00:28:04.420Z,7.90
2018-08-17T00:29:04.246Z,8.60
2018-08-17T00:30:04.208Z,7.80
2018-08-17T00:31:04.156Z,7.60
2018-08-17T00:32:04.097Z,7.40
2018-08-17T00:33:04.081Z,8.20
2018-08-17T00:34:04.007Z,7.90
2018-08-17T00:35:03.958Z,7.30
2018-08-17T00:36:03.920Z,8.20
2018-08-17T00:37:03.946Z,7.50
2018-08-17T00:38:03.858Z,7.60
2018-08-17T00:39:03.773Z,7.70
2018-08-17T00:40:03.732Z,7.70
2018-08-17T00:41:03.681Z,7.90
2018-08-17T00:42:03.685Z,8.00
2018-08-17T00:43:03.626Z,8.10
2018-08-17T00:44:03.543Z,7.30
2018-08-17T00:45:03.501Z,7.20
2018-08-17T00:46:03.510Z,7.60
2018-08-17T00:47:03.404Z,7.80
2018-08-17T00:48:03.367Z,6.80
2018-08-17T00:49:03.339Z,8.40
2018-08-17T00:50:03.270Z,8.50
2018-08-17T00:51:03.226Z,8.30
2018-08-17T00:52:03.179Z,7.80
2018-08-17T00:53:03.131Z,7.70
2018-08-17T00:54:03.111Z,8.00
2018-08-17T00:55:03.032Z,7.90
2018-08-17T00:56:02.994Z,8.90
2018-08-17T00:57:02.942Z,8.40
2018-08-17T00:58:02.908Z,8.40
2018-08-17T00:59:02.886Z,8.00
2018-08-17T01:00:02.814Z,8.20
2018-08-17T01:01:02.764Z,8.40
2018-08-17T01:02:02.710Z,8.50
2018-08-17T01:03:02.678Z,7.70
2018-08-17T01:04:02.639Z,8.30
2018-08-17T01:05:02.571Z,7.30
2018-08-17T01:06:02.521Z,6.90
2018-08-17T01:07:02.477Z,7.30
2018-08-17T01:08:02.430Z,6.80
2018-08-17T01:09:02.410Z,7.60
2018-08-17T01:10:02.339Z,7.40
2018-08-17T01:11:02.290Z,7.70
2018-08-17T01:12:02.247Z,7.00
2018-08-17T01:13:02.205Z,6.80
2018-08-17T01:14:02.186Z,7.60
2018-08-17T01:15:02.105Z,6.40
2018-08-17T01:16:02.071Z,7.50
2018-08-17T01:17:02.012Z,6.70
2018-08-17T01:18:01.966Z,7.10
2018-08-17T01:19:01.949Z,7.00
2018-08-17T01:20:01.877Z,7.00
2018-08-17T01:21:01.828Z,6.70
2018-08-17T01:22:01.787Z,7.20
2018-08-17T01:23:01.747Z,7.00
2018-08-17T01:24:01.711Z,7.20
2018-08-17T01:25:01.649Z,6.30
2018-08-17T01:26:01.605Z,6.20
2018-08-17T01:27:01.569Z,6.80
2018-08-17T01:28:01.520Z,6.20
2018-08-17T01:29:01.482Z,7.30
2018-08-17T01:30:01.412Z,5.80
2018-08-17T01:31:01.375Z,6.90
2018-08-17T01:32:01.323Z,7.00
2018-08-17T01:33:01.286Z,7.70
2018-08-17T01:34:01.255Z,7.10
2018-08-17T01:35:01.192Z,7.40
2018-08-17T01:36:01.146Z,7.20
2018-08-17T01:37:01.117Z,7.50
2018-08-17T01:38:01.046Z,6.30
2018-08-17T01:39:01.040Z,7.50
2018-08-17T01:40:00.961Z,8.00
2018-08-17T01:41:00.905Z,8.00
2018-08-17T01:42:00.855Z,7.30
2018-08-17T01:43:00.815Z,7.60
2018-08-17T01:44:00.788Z,6.80
2018-08-17T01:45:00.717Z,7.40
2018-08-17T01:46:00.675Z,7.40
2018-08-17T01:47:00.638Z,7.20
2018-08-17T01:48:00.580Z,6.70
2018-08-17T01:49:00.567Z,7.50
2018-08-17T01:50:00.502Z,5.90
2018-08-17T01:51:00.449Z,6.30
2018-08-17T01:52:00.393Z,7.10
2018-08-17T01:53:00.349Z,6.70
2018-08-17T01:54:00.349Z,7.20
2018-08-17T01:55:00.268Z,7.70
2018-08-17T01:56:00.216Z,7.10
2018-08-17T01:57:00.163Z,7.30
2018-08-17T01:58:00.121Z,7.00
2018-08-17T01:59:00.118Z,6.80
2018-08-17T02:00:00.027Z,6.70
2018-08-17T02:00:59.984Z,6.70
2018-08-17T02:01:59.945Z,5.40
2018-08-17T02:02:59.890Z,6.20
2018-08-17T02:03:59.866Z,6.20
2018-08-17T02:04:59.800Z,6.50
2018-08-17T02:05:59.751Z,7.60
2018-08-17T02:06:59.712Z,7.00
2018-08-17T02:07:59.665Z,7.00
2018-08-17T02:08:59.648Z,6.50
2018-08-17T02:09:59.567Z,6.30
2018-08-17T02:10:59.522Z,6.40
2018-08-17T02:11:59.474Z,6.60
2018-08-17T02:12:59.424Z,7.10
2018-08-17T02:13:59.382Z,7.10
2018-08-17T02:14:59.360Z,6.30
2018-08-17T02:15:59.286Z,7.00
2018-08-17T02:16:59.241Z,7.40
2018-08-17T02:17:59.201Z,8.00
2018-08-17T02:18:59.155Z,7.20
2018-08-17T02:19:59.138Z,7.60
2018-08-17T02:20:59.054Z,8.30
2018-08-17T02:21:59.013Z,6.80
2018-08-17T02:22:58.962Z,6.90
2018-08-17T02:23:58.925Z,6.90
2018-08-17T02:24:58.911Z,6.90
2018-08-17T02:25:58.835Z,8.10
2018-08-17T02:26:58.782Z,7.60
2018-08-17T02:27:58.745Z,6.60
2018-08-17T02:28:58.684Z,8.00
2018-08-17T02:29:58.672Z,7.40
2018-08-17T02:30:58.591Z,7.50
2018-08-17T02:31:58.549Z,7.50
2018-08-17T02:32:58.509Z,9.30
2018-08-17T02:33:58.457Z,8.00
2018-08-17T02:34:58.438Z,7.40
2018-08-17T02:35:58.362Z,7.80
2018-08-17T02:36:58.320Z,7.80
2018-08-17T02:37:58.282Z,7.90
2018-08-17T02:38:58.223Z,8.90
2018-08-17T02:39:58.218Z,7.80
2018-08-17T02:40:58.138Z,8.60
2018-08-17T02:41:58.084Z,6.90
2018-08-17T02:42:58.034Z,7.60
2018-08-17T02:43:57.996Z,7.00
2018-08-17T02:44:57.982Z,7.00
2018-08-17T02:45:57.905Z,7.00
2018-08-17T02:46:57.857Z,7.30
2018-08-17T02:47:57.813Z,7.00
2018-08-17T02:48:57.766Z,7.40
2018-08-17T02:49:57.742Z,7.00
2018-08-17T02:50:57.672Z,7.10
2018-08-17T02:51:57.624Z,6.90
2018-08-17T02:52:57.571Z,7.00
2018-08-17T02:53:57.533Z,6.30
2018-08-17T02:54:57.515Z,6.30
2018-08-17T02:55:57.434Z,6.50
2018-08-17T02:56:57.400Z,6.50
2018-08-17T02:57:57.356Z,6.90
2018-08-17T02:58:57.304Z,5.80
2018-08-17T02:59:57.274Z,6.60
2018-08-17T03:00:57.202Z,6.00
2018-08-17T03:01:57.171Z,6.70
2018-08-17T03:02:57.108Z,6.20
2018-08-17T03:03:57.078Z,6.70
2018-08-17T03:04:57.050Z,6.30
2018-08-17T03:05:56.968Z,6.50
2018-08-17T03:06:56.929Z,7.00
2018-08-17T03:07:56.885Z,6.40
2018-08-17T03:08:56.831Z,6.60
2018-08-17T03:09:56.823Z,6.30
2018-08-17T03:10:56.741Z,5.90
2018-08-17T03:11:56.704Z,5.70
2018-08-17T03:12:56.651Z,6.70
2018-08-17T03:13:56.603Z,6.30
2018-08-17T03:14:56.583Z,6.60
2018-08-17T03:15:56.520Z,6.40
2018-08-17T03:16:56.476Z,6.60
2018-08-17T03:17:56.415Z,6.00
2018-08-17T03:18:56.371Z,6.40
2018-08-17T03:19:56.356Z,6.80
2018-08-17T03:20:56.287Z,6.20
2018-08-17T03:21:56.230Z,6.60
2018-08-17T03:22:56.182Z,6.70
2018-08-17T03:23:56.147Z,6.20
2018-08-17T03:24:56.137Z,6.30
2018-08-17T03:25:56.044Z,6.60
2018-08-17T03:26:55.998Z,6.60
2018-08-17T03:27:55.967Z,6.40
2018-08-17T03:28:55.905Z,6.30
2018-08-17T03:29:55.897Z,6.10
2018-08-17T03:30:55.810Z,6.50
2018-08-17T03:31:55.763Z,6.20
2018-08-17T03:32:55.728Z,5.90
2018-08-17T03:33:55.670Z,6.50
2018-08-17T03:34:55.672Z,5.90
2018-08-17T03:35:55.578Z,6.20
2018-08-17T03:36:55.526Z,5.80
2018-08-17T03:37:55.503Z,6.40
2018-08-17T03:38:55.436Z,6.60
2018-08-17T03:39:55.420Z,6.20
2018-08-17T03:40:55.346Z,5.90
2018-08-17T03:41:55.305Z,6.40
2018-08-17T03:42:55.262Z,6.20
2018-08-17T03:43:55.210Z,6.10
2018-08-17T03:44:55.158Z,6.40
2018-08-17T03:45:55.133Z,6.40
2018-08-17T03:46:55.116Z,6.30
2018-08-17T03:47:55.015Z,6.60
2018-08-17T03:48:54.968Z,7.70
2018-08-17T03:49:54.915Z,7.10
2018-08-17T03:50:54.910Z,6.60
2018-08-17T03:51:54.827Z,7.30
2018-08-17T03:52:54.780Z,7.90
2018-08-17T03:53:54.734Z,7.80
2018-08-17T03:54:54.706Z,8.50
2018-08-17T03:55:54.680Z,9.10
2018-08-17T03:56:54.611Z,8.50
2018-08-17T03:57:54.543Z,9.10
2018-08-17T03:58:54.496Z,9.10
2018-08-17T03:59:54.446Z,8.70
2018-08-17T04:00:54.457Z,9.40
2018-08-17T04:01:54.377Z,8.80
2018-08-17T04:02:54.706Z,8.90
2018-08-17T04:03:54.279Z,10.00
2018-08-17T04:04:54.207Z,8.70
2018-08-17T04:05:54.183Z,9.40
2018-08-17T04:06:54.125Z,9.20
2018-08-17T04:07:54.065Z,9.60
2018-08-17T04:08:54.016Z,9.40
2018-08-17T04:09:53.970Z,9.80
2018-08-17T04:10:53.969Z,10.00
2018-08-17T04:11:53.874Z,9.50
2018-08-17T04:12:53.829Z,9.50
2018-08-17T04:13:53.784Z,9.70
2018-08-17T04:14:53.731Z,10.50
2018-08-17T04:15:53.723Z,11.10
2018-08-17T04:16:53.638Z,11.10
2018-08-17T04:17:53.594Z,12.60
2018-08-17T04:18:53.567Z,12.50
2018-08-17T04:19:53.496Z,13.50
2018-08-17T04:20:53.473Z,12.80
2018-08-17T04:21:53.406Z,13.70
2018-08-17T04:22:53.351Z,14.00
2018-08-17T04:23:53.392Z,14.50
2018-08-17T04:24:53.264Z,13.70
2018-08-17T04:25:53.238Z,15.40
2018-08-17T04:26:53.171Z,15.50
2018-08-17T04:27:53.125Z,14.80
2018-08-17T04:28:53.076Z,15.30
2018-08-17T04:29:53.023Z,17.20
2018-08-17T04:30:53.011Z,16.70
2018-08-17T04:31:52.932Z,15.70
2018-08-17T04:32:52.881Z,18.20
2018-08-17T04:33:52.832Z,17.00
2018-08-17T04:34:52.786Z,17.70
2018-08-17T04:35:52.765Z,17.00
2018-08-17T04:36:52.692Z,17.80
2018-08-17T04:37:52.644Z,16.90
2018-08-17T04:38:52.595Z,17.50
2018-08-17T04:39:52.564Z,17.10
2018-08-17T04:40:52.528Z,18.40
2018-08-17T04:41:52.461Z,17.00
2018-08-17T04:42:52.404Z,18.20
2018-08-17T04:43:52.431Z,17.10
2018-08-17T04:44:52.308Z,17.80
2018-08-17T04:45:52.291Z,17.50
2018-08-17T04:46:52.217Z,17.50
2018-08-17T04:47:52.173Z,18.40
2018-08-17T04:48:52.129Z,16.80
2018-08-17T04:49:52.079Z,17.50
2018-08-17T04:50:52.054Z,19.20
2018-08-17T04:51:51.983Z,16.00
2018-08-17T04:52:51.935Z,17.70
2018-08-17T04:53:51.885Z,17.10
2018-08-17T04:54:51.838Z,17.60
2018-08-17T04:55:51.818Z,16.20
2018-08-17T04:56:51.740Z,16.10
2018-08-17T04:57:51.695Z,17.70
2018-08-17T04:58:51.652Z,16.30
2018-08-17T04:59:51.626Z,15.60
2018-08-17T05:00:51.579Z,15.90
2018-08-17T05:01:51.510Z,16.30
2018-08-17T05:02:51.461Z,15.30
2018-08-17T05:03:51.423Z,15.70
2018-08-17T05:04:51.373Z,15.90
2018-08-17T05:05:51.362Z,15.20
2018-08-17T05:06:51.270Z,15.00
2018-08-17T05:07:51.240Z,15.70
2018-08-17T05:08:51.196Z,15.90
2018-08-17T05:09:51.144Z,15.40
2018-08-17T05:10:51.080Z,15.10
2018-08-17T05:11:51.075Z,14.30
2018-08-17T05:12:50.992Z,13.80
2018-08-17T05:13:50.940Z,13.50
2018-08-17T05:14:50.894Z,13.20
2018-08-17T05:15:50.861Z,13.90
2018-08-17T05:16:50.836Z,13.00
2018-08-17T05:17:50.755Z,12.70
2018-08-17T05:18:50.704Z,13.50
2018-08-17T05:19:50.660Z,13.00
2018-08-17T05:20:50.614Z,14.50
2018-08-17T05:21:50.589Z,12.90
2018-08-17T05:22:50.523Z,13.00
2018-08-17T05:23:50.475Z,12.60
2018-08-17T05:24:50.431Z,14.10
2018-08-17T05:25:50.379Z,13.10
2018-08-17T05:26:50.379Z,13.40
2018-08-17T05:27:50.296Z,12.90
2018-08-17T05:28:50.237Z,13.30
2018-08-17T05:29:50.190Z,13.60
2018-08-17T05:30:50.152Z,13.00
2018-08-17T05:31:50.128Z,13.80
2018-08-17T05:32:50.059Z,13.80
2018-08-17T05:33:50.006Z,13.10
2018-08-17T05:34:49.967Z,14.00
2018-08-17T05:35:49.940Z,13.50
2018-08-17T05:36:49.889Z,14.10
2018-08-17T05:37:49.817Z,12.40
2018-08-17T05:38:49.772Z,12.70
2018-08-17T05:39:49.732Z,12.90
2018-08-17T05:40:49.693Z,12.60
2018-08-17T05:41:49.669Z,12.90
2018-08-17T05:42:49.587Z,13.50
2018-08-17T05:43:49.559Z,13.10
2018-08-17T05:44:49.490Z,12.60
2018-08-17T05:45:49.446Z,12.10
2018-08-17T05:46:49.425Z,11.40
2018-08-17T05:47:49.347Z,11.40
2018-08-17T05:48:49.322Z,12.20
2018-08-17T05:49:49.257Z,11.80
2018-08-17T05:50:49.251Z,11.00
2018-08-17T05:51:49.191Z,11.90
2018-08-17T05:52:49.126Z,11.70
2018-08-17T05:53:49.073Z,11.80
2018-08-17T05:54:49.022Z,12.40
2018-08-17T05:55:48.981Z,12.40
2018-08-17T05:56:48.971Z,12.90
2018-08-17T05:57:48.883Z,12.70
2018-08-17T05:58:48.840Z,13.00
2018-08-17T05:59:48.800Z,12.30
2018-08-17T06:00:48.747Z,11.80
2018-08-17T06:01:48.720Z,12.30
2018-08-17T06:02:48.650Z,12.80
2018-08-17T06:03:48.598Z,12.80
2018-08-17T06:04:48.556Z,13.00
2018-08-17T06:05:48.512Z,12.60
2018-08-17T06:06:48.519Z,13.00
2018-08-17T06:07:48.421Z,11.70
2018-08-17T06:08:48.371Z,12.80
2018-08-17T06:09:48.325Z,11.70
2018-08-17T06:10:48.346Z,11.90
2018-08-17T06:11:48.341Z,13.10
2018-08-17T06:12:48.177Z,12.80
2018-08-17T06:13:48.150Z,11.70
2018-08-17T06:14:48.085Z,11.90
2018-08-17T06:15:48.051Z,12.00
2018-08-17T06:16:48.037Z,11.70
2018-08-17T06:17:47.952Z,12.30
2018-08-17T06:18:47.894Z,11.30
2018-08-17T06:19:47.853Z,10.80
2018-08-17T06:20:47.811Z,11.80
2018-08-17T06:21:47.782Z,12.40
2018-08-17T06:22:47.718Z,12.30
2018-08-17T06:23:47.667Z,11.80
2018-08-17T06:24:47.621Z,11.40
2018-08-17T06:25:47.579Z,11.20
2018-08-17T06:26:47.552Z,12.20
2018-08-17T06:27:55.205Z,11.00
2018-08-17T06:28:47.446Z,11.40
2018-08-17T06:29:47.395Z,12.20
2018-08-17T06:30:47.340Z,11.60
2018-08-17T06:31:47.405Z,11.60
2018-08-17T06:32:47.243Z,11.30
2018-08-17T06:33:47.202Z,10.30
2018-08-17T06:34:47.152Z,10.20
2018-08-17T06:35:47.109Z,11.10
2018-08-17T06:36:47.060Z,11.30
2018-08-17T06:37:47.036Z,12.00
2018-08-17T06:38:46.964Z,11.90
2018-08-17T06:39:46.919Z,12.20
2018-08-17T06:40:46.872Z,12.00
2018-08-17T06:41:46.827Z,11.40
2018-08-17T06:42:46.809Z,12.50
2018-08-17T06:43:46.730Z,11.80
2018-08-17T06:44:46.696Z,13.00
2018-08-17T06:45:46.644Z,12.40
2018-08-17T06:46:46.592Z,11.70
2018-08-17T06:47:46.569Z,12.30
2018-08-17T06:48:46.498Z,10.10
2018-08-17T06:49:46.454Z,12.00
2018-08-17T06:50:46.508Z,11.50
2018-08-17T06:51:46.358Z,10.90
2018-08-17T06:52:46.342Z,10.30
2018-08-17T06:53:46.274Z,10.40
2018-08-17T06:54:46.220Z,10.80
2018-08-17T06:55:46.173Z,10.00
2018-08-17T06:56:46.125Z,10.90
2018-08-17T06:57:46.101Z,9.80
2018-08-17T06:58:46.044Z,9.70
2018-08-17T06:59:46.016Z,9.90
2018-08-17T07:00:45.937Z,9.60
2018-08-17T07:01:45.896Z,9.40
2018-08-17T07:02:45.948Z,9.30
2018-08-17T07:03:45.801Z,8.50
2018-08-17T07:04:45.818Z,9.50
2018-08-17T07:05:45.707Z,9.60
2018-08-17T07:06:45.662Z,8.30
2018-08-17T07:07:45.642Z,9.00
2018-08-17T07:08:45.710Z,9.10
2018-08-17T07:09:45.523Z,8.90
2018-08-17T07:10:45.474Z,9.30
2018-08-17T07:11:45.429Z,8.90
2018-08-17T07:12:45.412Z,8.90
2018-08-17T07:13:45.342Z,8.80
2018-08-17T07:14:45.298Z,8.50
2018-08-17T07:15:45.246Z,8.00
2018-08-17T07:16:45.264Z,7.40
2018-08-17T07:17:45.178Z,7.60
2018-08-17T07:18:45.104Z,8.40
2018-08-17T07:19:45.057Z,8.30
2018-08-17T07:20:45.015Z,9.30
2018-08-17T07:21:45.022Z,8.10
2018-08-17T07:22:44.945Z,8.20
2018-08-17T07:23:44.871Z,8.40
2018-08-17T07:24:44.835Z,7.90
2018-08-17T07:25:44.781Z,7.40
2018-08-17T07:26:44.733Z,7.10
2018-08-17T07:27:44.813Z,7.30
2018-08-17T07:28:44.643Z,6.80
2018-08-17T07:29:44.594Z,6.90
2018-08-17T07:30:44.548Z,6.90
2018-08-17T07:31:44.504Z,7.70
2018-08-17T07:32:44.481Z,6.60
2018-08-17T07:33:44.409Z,7.70
2018-08-17T07:34:44.365Z,6.40
2018-08-17T07:35:44.348Z,7.10
2018-08-17T07:36:44.277Z,7.10
2018-08-17T07:37:44.250Z,7.00
2018-08-17T07:38:44.201Z,6.40
2018-08-17T07:39:44.138Z,6.50
2018-08-17T07:40:44.086Z,7.20
2018-08-17T07:41:44.108Z,6.40
2018-08-17T07:42:44.017Z,5.90
2018-08-17T07:43:43.949Z,7.60
2018-08-17T07:44:43.902Z,5.60
2018-08-17T07:45:43.873Z,5.60
2018-08-17T07:46:43.805Z,5.80
2018-08-17T07:47:43.808Z,5.20
2018-08-17T07:48:43.717Z,6.50
2018-08-17T07:49:43.672Z,6.30
2018-08-17T07:50:43.659Z,6.40
2018-08-17T07:51:43.579Z,5.90
2018-08-17T07:52:43.566Z,5.50
2018-08-17T07:53:43.485Z,5.80
2018-08-17T07:54:43.442Z,6.40
2018-08-17T07:55:43.390Z,6.10
2018-08-17T07:56:43.348Z,5.40
2018-08-17T07:57:43.296Z,5.60
2018-08-17T07:58:43.276Z,4.90
2018-08-17T07:59:43.210Z,4.90
2018-08-17T08:00:43.163Z,4.50
2018-08-17T08:01:43.124Z,4.70
2018-08-17T08:02:43.072Z,5.00
2018-08-17T08:03:43.054Z,4.50
2018-08-17T08:04:42.984Z,4.20
2018-08-17T08:05:42.933Z,5.60
2018-08-17T08:06:42.886Z,4.90
2018-08-17T08:07:42.839Z,4.40
2018-08-17T08:08:42.819Z,4.30
2018-08-17T08:09:42.744Z,4.90
2018-08-17T08:10:42.703Z,4.40
2018-08-17T08:11:42.670Z,5.70
2018-08-17T08:12:42.607Z,4.50
2018-08-17T08:13:42.617Z,4.10
2018-08-17T08:14:42.545Z,4.50
2018-08-17T08:15:42.475Z,5.70
2018-08-17T08:16:42.427Z,5.10
2018-08-17T08:17:42.382Z,4.10
2018-08-17T08:18:42.357Z,4.20
2018-08-17T08:19:42.285Z,4.40
2018-08-17T08:20:42.240Z,4.80
2018-08-17T08:21:42.195Z,4.20
2018-08-17T08:22:42.162Z,4.30
2018-08-17T08:23:42.126Z,4.30
2018-08-17T08:24:42.061Z,3.90
2018-08-17T08:25:42.218Z,4.10
2018-08-17T08:26:41.965Z,4.30
2018-08-17T08:27:41.917Z,3.90
2018-08-17T08:28:41.898Z,4.30
2018-08-17T08:29:41.826Z,4.60
2018-08-17T08:30:41.781Z,4.10
2018-08-17T08:31:41.732Z,4.60
2018-08-17T08:32:41.694Z,4.80
2018-08-17T08:33:41.675Z,4.50
2018-08-17T08:34:41.599Z,4.80
2018-08-17T08:35:41.548Z,4.60
2018-08-17T08:36:41.504Z,4.20
2018-08-17T08:37:41.461Z,5.00
2018-08-17T08:38:41.438Z,5.00
2018-08-17T08:39:41.371Z,4.20
2018-08-17T08:40:41.319Z,4.70
2018-08-17T08:41:41.276Z,5.00
2018-08-17T08:42:41.224Z,4.70
2018-08-17T08:43:41.205Z,4.70
2018-08-17T08:44:41.180Z,4.60
2018-08-17T08:45:41.156Z,4.40
2018-08-17T08:46:41.040Z,4.70
2018-08-17T08:47:40.994Z,4.70
2018-08-17T08:48:42.266Z,4.60
2018-08-17T08:49:40.901Z,4.80
2018-08-17T08:50:40.859Z,4.80
2018-08-17T08:51:40.808Z,5.00
2018-08-17T08:52:40.762Z,5.00
2018-08-17T08:53:40.745Z,5.20
2018-08-17T08:54:40.671Z,5.50
2018-08-17T08:55:40.622Z,5.30
2018-08-17T08:56:40.576Z,5.40
2018-08-17T08:57:40.532Z,6.30
2018-08-17T08:58:40.520Z,6.10
2018-08-17T08:59:40.437Z,6.80
2018-08-17T09:00:40.394Z,7.30
2018-08-17T09:01:40.352Z,6.40
2018-08-17T09:02:40.300Z,6.20
2018-08-17T09:03:40.252Z,7.80
2018-08-17T09:04:40.238Z,7.00
2018-08-17T09:05:40.157Z,8.50
2018-08-17T09:06:40.109Z,7.30
2018-08-17T09:07:40.061Z,6.60
2018-08-17T09:08:40.130Z,7.20
2018-08-17T09:09:39.991Z,6.70
2018-08-17T09:10:39.919Z,8.10
2018-08-17T09:11:39.873Z,7.10
2018-08-17T09:12:39.829Z,8.30
2018-08-17T09:13:39.832Z,6.90
2018-08-17T09:14:39.757Z,9.50
2018-08-17T09:15:39.684Z,7.70
2018-08-17T09:16:39.638Z,7.70
2018-08-17T09:17:39.592Z,8.10
2018-08-17T09:18:39.541Z,8.20
2018-08-17T09:19:39.523Z,8.10
2018-08-17T09:20:39.484Z,9.20
2018-08-17T09:21:39.408Z,8.50
2018-08-17T09:22:39.357Z,8.60
2018-08-17T09:23:39.308Z,9.50
2018-08-17T09:24:39.290Z,8.90
2018-08-17T09:25:39.213Z,8.40
2018-08-17T09:26:39.169Z,8.20
2018-08-17T09:27:39.122Z,8.30
2018-08-17T09:28:39.073Z,9.50
2018-08-17T09:29:39.054Z,8.20
2018-08-17T09:30:38.980Z,8.60
2018-08-17T09:31:38.936Z,9.30
2018-08-17T09:32:38.882Z,8.50
2018-08-17T09:33:38.839Z,8.40
2018-08-17T09:34:38.828Z,9.80
2018-08-17T09:35:38.743Z,9.30
2018-08-17T09:36:38.708Z,8.50
2018-08-17T09:37:38.655Z,8.40
2018-08-17T09:38:38.608Z,8.30
2018-08-17T09:39:38.601Z,8.00
2018-08-17T09:40:38.516Z,9.70
2018-08-17T09:41:38.468Z,7.90
2018-08-17T09:42:38.420Z,9.30
2018-08-17T09:43:38.386Z,9.60
2018-08-17T09:44:38.347Z,10.50
2018-08-17T09:45:38.276Z,8.80
2018-08-17T09:46:38.242Z,9.80
2018-08-17T09:47:38.184Z,9.30
2018-08-17T09:48:38.134Z,9.80
2018-08-17T09:49:38.125Z,11.10
2018-08-17T09:50:38.039Z,10.50
2018-08-17T09:51:37.995Z,10.40
2018-08-17T09:52:37.948Z,10.00
2018-08-17T09:53:37.900Z,9.10
2018-08-17T09:54:37.879Z,9.80
2018-08-17T09:55:37.813Z,9.20
2018-08-17T09:56:37.761Z,8.50
2018-08-17T09:57:37.797Z,8.30
2018-08-17T09:58:37.668Z,8.30
2018-08-17T09:59:37.647Z,7.80
2018-08-17T10:00:37.577Z,7.70
2018-08-17T10:01:37.534Z,7.40
2018-08-17T10:02:37.483Z,8.20
2018-08-17T10:03:37.444Z,7.80
2018-08-17T10:04:37.417Z,8.80
2018-08-17T10:05:37.345Z,8.80
2018-08-17T10:06:37.301Z,7.90
2018-08-17T10:07:37.254Z,8.90
2018-08-17T10:08:37.208Z,7.90
2018-08-17T10:09:37.188Z,6.30
2018-08-17T10:10:37.116Z,6.00
2018-08-17T10:11:37.073Z,5.70
2018-08-17T10:12:37.030Z,5.10
2018-08-17T10:13:36.978Z,5.70
2018-08-17T10:14:36.962Z,6.00
2018-08-17T10:15:36.885Z,5.90
2018-08-17T10:16:36.842Z,6.80
2018-08-17T10:17:36.794Z,6.70
2018-08-17T10:18:36.746Z,6.20
2018-08-17T10:19:36.730Z,5.50
2018-08-17T10:20:36.660Z,5.80
2018-08-17T10:21:36.978Z,5.30
2018-08-17T10:22:36.574Z,5.10
2018-08-17T10:23:36.526Z,5.10
2018-08-17T10:24:36.500Z,5.60
2018-08-17T10:25:36.436Z,5.70
2018-08-17T10:26:36.380Z,5.10
2018-08-17T10:27:36.334Z,5.00
2018-08-17T10:28:36.289Z,5.90
2018-08-17T10:29:36.294Z,4.20
2018-08-17T10:30:36.198Z,3.70
2018-08-17T10:31:36.160Z,4.20
2018-08-17T10:32:36.108Z,3.10
2018-08-17T10:33:36.056Z,3.40
2018-08-17T10:34:36.010Z,3.20
2018-08-17T10:35:36.000Z,3.60
2018-08-17T10:36:35.930Z,4.90
2018-08-17T10:37:35.873Z,5.40
2018-08-17T10:38:35.831Z,4.50
2018-08-17T10:39:35.789Z,5.50
2018-08-17T10:40:35.819Z,5.40
2018-08-17T10:41:35.696Z,5.70
2018-08-17T10:42:35.649Z,5.30
2018-08-17T10:43:35.601Z,5.10
2018-08-17T10:44:35.554Z,5.20
2018-08-17T10:45:35.609Z,5.30
2018-08-17T10:46:35.461Z,4.40
2018-08-17T10:47:35.418Z,4.60
2018-08-17T10:48:35.394Z,4.70
2018-08-17T10:49:35.324Z,4.80
2018-08-17T10:50:35.303Z,4.30
2018-08-17T10:51:35.233Z,4.00
2018-08-17T10:52:35.184Z,4.00
2018-08-17T10:53:35.140Z,3.60
2018-08-17T10:54:35.100Z,2.80
2018-08-17T10:55:35.161Z,2.60
2018-08-17T10:56:35.006Z,2.80
2018-08-17T10:57:35.078Z,2.20
2018-08-17T10:58:34.913Z,2.80
2018-08-17T10:59:34.868Z,2.50
2018-08-17T11:00:34.845Z,3.90
2018-08-17T11:01:34.778Z,5.10
2018-08-17T11:02:34.728Z,5.20
2018-08-17T11:03:34.679Z,5.50
2018-08-17T11:04:34.641Z,5.70
2018-08-17T11:05:34.616Z,6.10
2018-08-17T11:06:34.546Z,5.10
2018-08-17T11:07:34.501Z,6.10
2018-08-17T11:08:34.456Z,5.40
2018-08-17T11:09:34.415Z,5.40
2018-08-17T11:10:34.389Z,5.20
2018-08-17T11:11:34.321Z,5.50
2018-08-17T11:12:34.275Z,6.30
2018-08-17T11:13:34.288Z,6.40
2018-08-17T11:14:34.181Z,6.30
2018-08-17T11:15:34.164Z,6.90
2018-08-17T11:16:34.089Z,7.40
2018-08-17T11:17:34.058Z,8.20
2018-08-17T11:18:34.003Z,8.00
2018-08-17T11:19:33.957Z,8.20
2018-08-17T11:20:33.932Z,7.70
2018-08-17T11:21:33.870Z,7.00
2018-08-17T11:22:33.820Z,6.80
2018-08-17T11:23:33.777Z,7.10
2018-08-17T11:24:33.725Z,7.20
2018-08-17T11:25:33.703Z,6.50
2018-08-17T11:26:33.633Z,6.40
2018-08-17T11:27:33.584Z,6.40
2018-08-17T11:28:33.541Z,6.00
2018-08-17T11:29:33.491Z,6.40
2018-08-17T11:30:33.471Z,5.70
2018-08-17T11:31:33.407Z,6.10
2018-08-17T11:32:33.358Z,5.80
2018-08-17T11:33:33.314Z,5.70
2018-08-17T11:34:33.270Z,5.40
2018-08-17T11:35:33.251Z,4.80
2018-08-17T11:36:33.290Z,4.90
2018-08-17T11:37:33.127Z,4.70
2018-08-17T11:38:33.085Z,4.60
2018-08-17T11:39:33.038Z,4.40
2018-08-17T11:40:33.018Z,3.90
2018-08-17T11:41:33.034Z,3.60
2018-08-17T11:42:32.900Z,3.60
2018-08-17T11:43:32.854Z,3.30
2018-08-17T11:44:32.810Z,3.40
2018-08-17T11:45:32.787Z,3.40
2018-08-17T11:46:32.715Z,2.50
2018-08-17T11:47:32.674Z,3.10
2018-08-17T11:48:32.628Z,3.20
2018-08-17T11:49:32.583Z,2.80
2018-08-17T11:50:32.590Z,2.20
2018-08-17T11:51:32.488Z,2.10
2018-08-17T11:52:32.445Z,2.20
2018-08-17T11:53:32.440Z,2.10
2018-08-17T11:54:32.358Z,3.40
2018-08-17T11:55:32.312Z,2.20
2018-08-17T11:56:32.289Z,2.20
2018-08-17T11:57:32.217Z,3.30
2018-08-17T11:58:32.174Z,2.30
2018-08-17T11:59:32.128Z,2.60
2018-08-17T12:00:32.088Z,2.10
2018-08-17T12:01:32.056Z,2.60
2018-08-17T12:02:32.008Z,2.20
2018-08-17T12:03:31.942Z,2.20
2018-08-17T12:04:31.896Z,2.10
2018-08-17T12:05:31.849Z,2.00
2018-08-17T12:06:31.831Z,2.40
2018-08-17T12:07:31.761Z,2.20
2018-08-17T12:08:31.747Z,2.00
2018-08-17T12:09:31.672Z,1.70
2018-08-17T12:10:31.626Z,1.70
2018-08-17T12:11:31.610Z,1.40
2018-08-17T12:12:31.535Z,1.60
2018-08-17T12:13:31.491Z,1.30
2018-08-17T12:14:31.440Z,1.50
2018-08-17T12:15:31.400Z,1.50
2018-08-17T12:16:31.378Z,1.90
2018-08-17T12:17:31.309Z,1.20
2018-08-17T12:18:31.265Z,1.60
2018-08-17T12:19:31.217Z,1.50
2018-08-17T12:20:31.170Z,1.10
2018-08-17T12:21:31.157Z,1.50
2018-08-17T12:22:31.084Z,2.70
2018-08-17T12:23:31.036Z,2.10
2018-08-17T12:24:31.029Z,1.90
2018-08-17T12:25:30.949Z,1.90
2018-08-17T12:26:30.925Z,1.70
2018-08-17T12:27:30.867Z,2.00
2018-08-17T12:28:30.809Z,2.00
2018-08-17T12:29:30.767Z,2.00
2018-08-17T12:30:30.721Z,2.00
2018-08-17T12:31:30.699Z,1.80
2018-08-17T12:32:30.633Z,1.90
2018-08-17T12:33:30.582Z,2.50
2018-08-17T12:34:30.535Z,2.10
2018-08-17T12:35:30.494Z,2.00
2018-08-17T12:36:30.656Z,2.00
2018-08-17T12:37:30.405Z,1.80
2018-08-17T12:38:30.357Z,1.90
2018-08-17T12:39:30.319Z,1.60
2018-08-17T12:40:30.272Z,2.20
2018-08-17T12:41:30.253Z,2.00
2018-08-17T12:42:30.775Z,1.90
2018-08-17T12:43:30.485Z,1.70
2018-08-17T12:44:30.092Z,2.10
2018-08-17T12:45:30.046Z,1.60
2018-08-17T12:46:30.104Z,2.00
2018-08-17T12:47:29.956Z,1.70
2018-08-17T12:48:29.915Z,1.60
2018-08-17T12:49:29.865Z,1.30
2018-08-17T12:50:29.817Z,1.50
2018-08-17T12:51:29.775Z,1.30
2018-08-17T12:52:29.798Z,1.40
2018-08-17T12:53:29.690Z,1.40
2018-08-17T12:54:29.662Z,1.20
2018-08-17T12:55:29.630Z,1.30
2018-08-17T12:56:29.548Z,1.20
2018-08-17T12:57:29.543Z,1.50
2018-08-17T12:58:29.472Z,1.40
2018-08-17T12:59:29.414Z,1.50
2018-08-17T13:00:29.374Z,1.40
2018-08-17T13:01:29.329Z,1.40
2018-08-17T13:02:29.299Z,1.20
2018-08-17T13:03:29.239Z,1.40
2018-08-17T13:04:29.187Z,1.30
2018-08-17T13:05:29.223Z,1.50
2018-08-17T13:06:29.096Z,1.40
2018-08-17T13:07:29.088Z,1.80
2018-08-17T13:08:29.005Z,1.50
2018-08-17T13:09:28.964Z,1.80
2018-08-17T13:10:28.916Z,1.70
2018-08-17T13:11:28.870Z,1.60